sensor_id;sensor_type;location;lat;lon;timestamp;temperature;humidity
29203;DHT22;16245;51.170;4.884;2022-11-20T00:00:43;4.80;99.90
29203;DHT22;16245;51.170;4.884;2022-11-20T00:03:08;4.80;99.90
29203;DHT22;16245;51.170;4.884;2022-11-20T00:05:34;4.80;99.90
29203;DHT22;16245;51.170;4.884;2022-11-20T00:08:00;4.80;99.90
29203;DHT22;16245;51.170;4.884;2022-11-20T00:10:25;4.80;99.90
29203;DHT22;16245;51.170;4.884;2022-11-20T00:12:52;4.80;99.90
29203;DHT22;16245;51.170;4.884;2022-11-20T00:15:17;4.80;99.90
29203;DHT22;16245;51.170;4.884;2022-11-20T00:17:43;4.80;99.90
29203;DHT22;16245;51.170;4.884;2022-11-20T00:20:09;4.70;99.90
29203;DHT22;16245;51.170;4.884;2022-11-20T00:22:35;4.70;99.90
29203;DHT22;16245;51.170;4.884;2022-11-20T00:25:00;4.70;99.90
29203;DHT22;16245;51.170;4.884;2022-11-20T00:27:26;4.70;99.90
29203;DHT22;16245;51.170;4.884;2022-11-20T00:29:52;4.70;99.90
29203;DHT22;16245;51.170;4.884;2022-11-20T00:32:17;4.70;99.90
29203;DHT22;16245;51.170;4.884;2022-11-20T00:34:43;4.70;99.90
29203;DHT22;16245;51.170;4.884;2022-11-20T00:37:08;4.70;99.90
29203;DHT22;16245;51.170;4.884;2022-11-20T00:39:34;4.70;99.90
29203;DHT22;16245;51.170;4.884;2022-11-20T00:42:00;4.70;99.90
29203;DHT22;16245;51.170;4.884;2022-11-20T00:44:25;4.70;99.90
29203;DHT22;16245;51.170;4.884;2022-11-20T00:46:51;4.70;99.90
29203;DHT22;16245;51.170;4.884;2022-11-20T00:49:16;4.70;99.90
29203;DHT22;16245;51.170;4.884;2022-11-20T00:51:42;4.80;99.90
29203;DHT22;16245;51.170;4.884;2022-11-20T00:54:08;4.70;99.90
29203;DHT22;16245;51.170;4.884;2022-11-20T00:56:33;4.70;99.90
29203;DHT22;16245;51.170;4.884;2022-11-20T00:59:00;4.80;99.90
29203;DHT22;16245;51.170;4.884;2022-11-20T01:01:26;4.80;99.90
29203;DHT22;16245;51.170;4.884;2022-11-20T01:03:56;4.80;99.90
29203;DHT22;16245;51.170;4.884;2022-11-20T01:06:31;4.90;99.90
29203;DHT22;16245;51.170;4.884;2022-11-20T01:08:59;4.90;99.90
29203;DHT22;16245;51.170;4.884;2022-11-20T01:11:30;4.90;99.90
29203;DHT22;16245;51.170;4.884;2022-11-20T01:13:56;5.00;99.90
29203;DHT22;16245;51.170;4.884;2022-11-20T01:16:34;5.10;99.90
29203;DHT22;16245;51.170;4.884;2022-11-20T01:19:02;5.20;99.90
29203;DHT22;16245;51.170;4.884;2022-11-20T01:21:33;5.10;99.90
29203;DHT22;16245;51.170;4.884;2022-11-20T01:23:59;5.10;99.90
29203;DHT22;16245;51.170;4.884;2022-11-20T01:26:27;5.00;99.90
29203;DHT22;16245;51.170;4.884;2022-11-20T01:28:54;5.00;99.90
29203;DHT22;16245;51.170;4.884;2022-11-20T01:31:31;5.00;99.90
29203;DHT22;16245;51.170;4.884;2022-11-20T01:33:59;5.10;99.90
29203;DHT22;16245;51.170;4.884;2022-11-20T01:36:28;5.10;99.90
29203;DHT22;16245;51.170;4.884;2022-11-20T01:38:56;5.00;99.90
29203;DHT22;16245;51.170;4.884;2022-11-20T01:41:24;4.90;99.90
29203;DHT22;16245;51.170;4.884;2022-11-20T01:44:12;4.90;99.90
29203;DHT22;16245;51.170;4.884;2022-11-20T01:46:47;4.90;99.90
29203;DHT22;16245;51.170;4.884;2022-11-20T01:51:50;5.00;99.90
29203;DHT22;16245;51.170;4.884;2022-11-20T01:54:22;5.10;99.90
29203;DHT22;16245;51.170;4.884;2022-11-20T01:56:51;5.00;99.90
29203;DHT22;16245;51.170;4.884;2022-11-20T01:59:19;5.00;99.90
29203;DHT22;16245;51.170;4.884;2022-11-20T02:01:46;5.00;99.90
29203;DHT22;16245;51.170;4.884;2022-11-20T02:04:13;4.90;99.90
29203;DHT22;16245;51.170;4.884;2022-11-20T02:06:45;4.80;99.90
29203;DHT22;16245;51.170;4.884;2022-11-20T02:09:13;4.80;99.90
29203;DHT22;16245;51.170;4.884;2022-11-20T02:11:39;5.00;99.90
29203;DHT22;16245;51.170;4.884;2022-11-20T02:14:04;5.20;99.90
29203;DHT22;16245;51.170;4.884;2022-11-20T02:16:37;5.10;99.90
29203;DHT22;16245;51.170;4.884;2022-11-20T02:19:07;5.10;99.90
29203;DHT22;16245;51.170;4.884;2022-11-20T02:21:46;5.10;99.90
29203;DHT22;16245;51.170;4.884;2022-11-20T02:24:18;5.10;99.90
29203;DHT22;16245;51.170;4.884;2022-11-20T02:26:54;5.10;99.90
29203;DHT22;16245;51.170;4.884;2022-11-20T02:29:25;5.00;99.90
29203;DHT22;16245;51.170;4.884;2022-11-20T02:31:53;4.90;99.90
29203;DHT22;16245;51.170;4.884;2022-11-20T02:34:20;4.90;99.90
29203;DHT22;16245;51.170;4.884;2022-11-20T02:36:46;4.90;99.90
29203;DHT22;16245;51.170;4.884;2022-11-20T02:39:13;4.90;99.90
29203;DHT22;16245;51.170;4.884;2022-11-20T02:41:42;4.90;99.90
29203;DHT22;16245;51.170;4.884;2022-11-20T02:44:08;4.90;99.90
29203;DHT22;16245;51.170;4.884;2022-11-20T02:46:34;4.90;99.90
29203;DHT22;16245;51.170;4.884;2022-11-20T02:49:01;5.00;99.90
29203;DHT22;16245;51.170;4.884;2022-11-20T02:51:27;5.10;99.90
29203;DHT22;16245;51.170;4.884;2022-11-20T02:53:52;5.00;99.90
29203;DHT22;16245;51.170;4.884;2022-11-20T02:56:18;5.10;99.90
29203;DHT22;16245;51.170;4.884;2022-11-20T02:58:44;5.00;99.90
29203;DHT22;16245;51.170;4.884;2022-11-20T03:01:09;4.90;99.90
29203;DHT22;16245;51.170;4.884;2022-11-20T03:03:35;4.90;99.90
29203;DHT22;16245;51.170;4.884;2022-11-20T03:06:01;4.90;99.90
29203;DHT22;16245;51.170;4.884;2022-11-20T03:08:26;4.80;99.90
29203;DHT22;16245;51.170;4.884;2022-11-20T03:10:53;4.90;99.90
29203;DHT22;16245;51.170;4.884;2022-11-20T03:13:18;4.90;99.90
29203;DHT22;16245;51.170;4.884;2022-11-20T03:15:44;4.90;99.90
29203;DHT22;16245;51.170;4.884;2022-11-20T03:18:10;5.00;99.90
29203;DHT22;16245;51.170;4.884;2022-11-20T03:20:35;5.00;99.90
29203;DHT22;16245;51.170;4.884;2022-11-20T03:23:01;4.90;99.90
29203;DHT22;16245;51.170;4.884;2022-11-20T03:25:27;4.90;99.90
29203;DHT22;16245;51.170;4.884;2022-11-20T03:27:53;4.90;99.90
29203;DHT22;16245;51.170;4.884;2022-11-20T03:30:19;4.80;99.90
29203;DHT22;16245;51.170;4.884;2022-11-20T03:32:45;5.00;99.90
29203;DHT22;16245;51.170;4.884;2022-11-20T03:35:10;4.90;99.90
29203;DHT22;16245;51.170;4.884;2022-11-20T03:37:36;4.90;99.90
29203;DHT22;16245;51.170;4.884;2022-11-20T03:40:02;4.90;99.90
29203;DHT22;16245;51.170;4.884;2022-11-20T03:42:28;4.90;99.90
29203;DHT22;16245;51.170;4.884;2022-11-20T03:45:13;4.90;99.90
29203;DHT22;16245;51.170;4.884;2022-11-20T03:47:39;4.90;99.90
29203;DHT22;16245;51.170;4.884;2022-11-20T03:50:05;4.80;99.90
29203;DHT22;16245;51.170;4.884;2022-11-20T03:52:31;4.80;99.90
29203;DHT22;16245;51.170;4.884;2022-11-20T03:54:57;4.80;99.90
29203;DHT22;16245;51.170;4.884;2022-11-20T03:57:22;4.90;99.90
29203;DHT22;16245;51.170;4.884;2022-11-20T03:59:48;4.90;99.90
29203;DHT22;16245;51.170;4.884;2022-11-20T04:02:13;4.90;99.90
29203;DHT22;16245;51.170;4.884;2022-11-20T04:04:39;4.80;99.90
29203;DHT22;16245;51.170;4.884;2022-11-20T04:07:04;4.80;99.90
29203;DHT22;16245;51.170;4.884;2022-11-20T04:09:30;4.80;99.90
29203;DHT22;16245;51.170;4.884;2022-11-20T04:11:56;4.90;99.90
29203;DHT22;16245;51.170;4.884;2022-11-20T04:14:21;4.90;99.90
29203;DHT22;16245;51.170;4.884;2022-11-20T04:16:47;5.10;99.90
29203;DHT22;16245;51.170;4.884;2022-11-20T04:19:15;5.10;99.90
29203;DHT22;16245;51.170;4.884;2022-11-20T04:21:42;5.00;99.90
29203;DHT22;16245;51.170;4.884;2022-11-20T04:24:07;5.10;99.90
29203;DHT22;16245;51.170;4.884;2022-11-20T04:26:33;5.20;99.90
29203;DHT22;16245;51.170;4.884;2022-11-20T04:28:59;5.10;99.90
29203;DHT22;16245;51.170;4.884;2022-11-20T04:31:29;5.00;99.90
29203;DHT22;16245;51.170;4.884;2022-11-20T04:33:55;4.90;99.90
29203;DHT22;16245;51.170;4.884;2022-11-20T04:36:26;4.90;99.90
29203;DHT22;16245;51.170;4.884;2022-11-20T04:38:52;5.10;99.90
29203;DHT22;16245;51.170;4.884;2022-11-20T04:41:20;5.20;99.90
29203;DHT22;16245;51.170;4.884;2022-11-20T04:43:50;5.10;99.90
29203;DHT22;16245;51.170;4.884;2022-11-20T04:46:18;5.10;99.90
29203;DHT22;16245;51.170;4.884;2022-11-20T04:48:44;5.10;99.90
29203;DHT22;16245;51.170;4.884;2022-11-20T04:51:10;5.10;99.90
29203;DHT22;16245;51.170;4.884;2022-11-20T04:53:36;5.10;99.90
29203;DHT22;16245;51.170;4.884;2022-11-20T04:56:05;5.00;99.90
29203;DHT22;16245;51.170;4.884;2022-11-20T04:58:31;4.80;99.90
29203;DHT22;16245;51.170;4.884;2022-11-20T05:01:14;4.80;99.90
29203;DHT22;16245;51.170;4.884;2022-11-20T05:03:41;4.70;99.90
29203;DHT22;16245;51.170;4.884;2022-11-20T05:06:08;4.70;99.90
29203;DHT22;16245;51.170;4.884;2022-11-20T05:08:34;4.70;99.90
29203;DHT22;16245;51.170;4.884;2022-11-20T05:11:05;4.70;99.90
29203;DHT22;16245;51.170;4.884;2022-11-20T05:13:30;4.80;99.90
29203;DHT22;16245;51.170;4.884;2022-11-20T05:16:02;4.70;99.90
29203;DHT22;16245;51.170;4.884;2022-11-20T05:18:27;4.80;99.90
29203;DHT22;16245;51.170;4.884;2022-11-20T05:20:57;4.90;99.90
29203;DHT22;16245;51.170;4.884;2022-11-20T05:23:23;4.70;99.90
29203;DHT22;16245;51.170;4.884;2022-11-20T05:25:55;4.60;99.90
29203;DHT22;16245;51.170;4.884;2022-11-20T05:28:22;4.80;99.90
29203;DHT22;16245;51.170;4.884;2022-11-20T05:30:48;4.80;99.90
29203;DHT22;16245;51.170;4.884;2022-11-20T05:33:14;4.90;99.90
29203;DHT22;16245;51.170;4.884;2022-11-20T05:35:40;4.90;99.90
29203;DHT22;16245;51.170;4.884;2022-11-20T05:38:06;5.00;99.90
29203;DHT22;16245;51.170;4.884;2022-11-20T05:40:32;5.00;99.90
29203;DHT22;16245;51.170;4.884;2022-11-20T05:42:57;5.20;99.90
29203;DHT22;16245;51.170;4.884;2022-11-20T05:45:23;5.30;99.90
29203;DHT22;16245;51.170;4.884;2022-11-20T05:47:48;5.40;99.90
29203;DHT22;16245;51.170;4.884;2022-11-20T05:50:14;5.30;99.90
29203;DHT22;16245;51.170;4.884;2022-11-20T05:52:40;5.20;99.90
29203;DHT22;16245;51.170;4.884;2022-11-20T05:55:06;5.10;99.90
29203;DHT22;16245;51.170;4.884;2022-11-20T05:57:32;5.00;99.90
29203;DHT22;16245;51.170;4.884;2022-11-20T05:59:58;5.00;99.90
29203;DHT22;16245;51.170;4.884;2022-11-20T06:02:23;5.00;99.90
29203;DHT22;16245;51.170;4.884;2022-11-20T06:04:49;5.10;99.90
29203;DHT22;16245;51.170;4.884;2022-11-20T06:07:14;5.10;99.90
29203;DHT22;16245;51.170;4.884;2022-11-20T06:09:40;5.20;99.90
29203;DHT22;16245;51.170;4.884;2022-11-20T06:12:06;5.20;99.90
29203;DHT22;16245;51.170;4.884;2022-11-20T06:14:32;5.10;99.90
29203;DHT22;16245;51.170;4.884;2022-11-20T06:16:58;5.00;99.90
29203;DHT22;16245;51.170;4.884;2022-11-20T06:19:24;5.00;99.90
29203;DHT22;16245;51.170;4.884;2022-11-20T06:21:49;4.90;99.90
29203;DHT22;16245;51.170;4.884;2022-11-20T06:24:16;4.90;99.90
29203;DHT22;16245;51.170;4.884;2022-11-20T06:26:42;4.90;99.90
29203;DHT22;16245;51.170;4.884;2022-11-20T06:29:07;5.00;99.90
29203;DHT22;16245;51.170;4.884;2022-11-20T06:31:33;4.60;99.90
29203;DHT22;16245;51.170;4.884;2022-11-20T06:34:00;4.30;99.90
29203;DHT22;16245;51.170;4.884;2022-11-20T06:36:26;4.30;99.90
29203;DHT22;16245;51.170;4.884;2022-11-20T06:38:52;4.30;99.90
29203;DHT22;16245;51.170;4.884;2022-11-20T06:41:21;4.30;99.90
29203;DHT22;16245;51.170;4.884;2022-11-20T06:43:47;4.40;99.90
29203;DHT22;16245;51.170;4.884;2022-11-20T06:46:14;4.60;99.90
29203;DHT22;16245;51.170;4.884;2022-11-20T06:48:43;4.60;99.90
29203;DHT22;16245;51.170;4.884;2022-11-20T06:51:09;4.80;99.90
29203;DHT22;16245;51.170;4.884;2022-11-20T06:53:35;5.00;99.90
29203;DHT22;16245;51.170;4.884;2022-11-20T06:56:01;5.00;99.90
29203;DHT22;16245;51.170;4.884;2022-11-20T06:58:29;5.10;99.90
29203;DHT22;16245;51.170;4.884;2022-11-20T07:01:02;5.00;99.90
29203;DHT22;16245;51.170;4.884;2022-11-20T07:03:28;5.00;99.90
29203;DHT22;16245;51.170;4.884;2022-11-20T07:05:55;5.10;99.90
29203;DHT22;16245;51.170;4.884;2022-11-20T07:08:21;5.10;99.90
29203;DHT22;16245;51.170;4.884;2022-11-20T07:10:47;5.00;99.90
29203;DHT22;16245;51.170;4.884;2022-11-20T07:13:13;4.90;99.90
29203;DHT22;16245;51.170;4.884;2022-11-20T07:15:39;4.70;99.90
29203;DHT22;16245;51.170;4.884;2022-11-20T07:18:04;4.70;99.90
29203;DHT22;16245;51.170;4.884;2022-11-20T07:20:30;4.80;99.90
29203;DHT22;16245;51.170;4.884;2022-11-20T07:22:56;4.90;99.90
29203;DHT22;16245;51.170;4.884;2022-11-20T07:25:23;4.90;99.90
29203;DHT22;16245;51.170;4.884;2022-11-20T07:27:49;4.90;99.90
29203;DHT22;16245;51.170;4.884;2022-11-20T07:30:15;4.90;99.90
29203;DHT22;16245;51.170;4.884;2022-11-20T07:32:41;5.00;99.90
29203;DHT22;16245;51.170;4.884;2022-11-20T07:35:07;5.10;99.90
29203;DHT22;16245;51.170;4.884;2022-11-20T07:37:36;5.10;99.90
29203;DHT22;16245;51.170;4.884;2022-11-20T07:40:02;5.10;99.90
29203;DHT22;16245;51.170;4.884;2022-11-20T07:42:28;5.10;99.90
29203;DHT22;16245;51.170;4.884;2022-11-20T07:44:54;5.10;99.90
29203;DHT22;16245;51.170;4.884;2022-11-20T07:47:19;5.30;99.90
29203;DHT22;16245;51.170;4.884;2022-11-20T07:49:45;5.40;99.90
29203;DHT22;16245;51.170;4.884;2022-11-20T07:52:11;5.50;99.90
29203;DHT22;16245;51.170;4.884;2022-11-20T07:54:36;5.50;99.90
29203;DHT22;16245;51.170;4.884;2022-11-20T07:57:02;5.50;99.90
29203;DHT22;16245;51.170;4.884;2022-11-20T07:59:27;5.50;99.90
29203;DHT22;16245;51.170;4.884;2022-11-20T08:01:53;5.40;99.90
29203;DHT22;16245;51.170;4.884;2022-11-20T08:04:19;5.40;99.90
29203;DHT22;16245;51.170;4.884;2022-11-20T08:06:44;5.30;99.90
29203;DHT22;16245;51.170;4.884;2022-11-20T08:09:10;5.30;99.90
29203;DHT22;16245;51.170;4.884;2022-11-20T08:11:35;5.30;99.90
29203;DHT22;16245;51.170;4.884;2022-11-20T08:14:19;5.30;99.90
29203;DHT22;16245;51.170;4.884;2022-11-20T08:16:47;5.40;99.90
29203;DHT22;16245;51.170;4.884;2022-11-20T08:19:14;5.20;99.90
29203;DHT22;16245;51.170;4.884;2022-11-20T08:21:39;5.20;99.90
29203;DHT22;16245;51.170;4.884;2022-11-20T08:24:06;5.20;99.90
29203;DHT22;16245;51.170;4.884;2022-11-20T08:26:32;5.20;99.90
29203;DHT22;16245;51.170;4.884;2022-11-20T08:28:58;5.30;99.90
29203;DHT22;16245;51.170;4.884;2022-11-20T08:31:25;5.30;99.90
29203;DHT22;16245;51.170;4.884;2022-11-20T08:33:51;5.40;99.90
29203;DHT22;16245;51.170;4.884;2022-11-20T08:36:17;5.40;99.90
29203;DHT22;16245;51.170;4.884;2022-11-20T08:38:49;5.50;99.90
29203;DHT22;16245;51.170;4.884;2022-11-20T08:41:15;5.60;99.90
29203;DHT22;16245;51.170;4.884;2022-11-20T08:43:58;5.70;99.90
29203;DHT22;16245;51.170;4.884;2022-11-20T08:46:26;5.70;99.90
29203;DHT22;16245;51.170;4.884;2022-11-20T08:48:52;5.80;99.90
29203;DHT22;16245;51.170;4.884;2022-11-20T08:51:18;5.70;99.90
29203;DHT22;16245;51.170;4.884;2022-11-20T08:53:44;5.60;99.90
29203;DHT22;16245;51.170;4.884;2022-11-20T08:56:09;5.50;99.90
29203;DHT22;16245;51.170;4.884;2022-11-20T08:58:36;5.50;99.90
29203;DHT22;16245;51.170;4.884;2022-11-20T09:01:02;5.70;99.90
29203;DHT22;16245;51.170;4.884;2022-11-20T09:03:28;5.70;99.90
29203;DHT22;16245;51.170;4.884;2022-11-20T09:05:58;5.70;99.90
29203;DHT22;16245;51.170;4.884;2022-11-20T09:08:24;5.80;99.90
29203;DHT22;16245;51.170;4.884;2022-11-20T09:10:54;5.60;99.90
29203;DHT22;16245;51.170;4.884;2022-11-20T09:13:21;5.60;99.90
29203;DHT22;16245;51.170;4.884;2022-11-20T09:15:46;5.40;99.90
29203;DHT22;16245;51.170;4.884;2022-11-20T09:18:12;5.60;99.90
29203;DHT22;16245;51.170;4.884;2022-11-20T09:20:38;5.60;99.90
29203;DHT22;16245;51.170;4.884;2022-11-20T09:23:04;5.50;99.90
29203;DHT22;16245;51.170;4.884;2022-11-20T09:25:29;5.60;99.90
29203;DHT22;16245;51.170;4.884;2022-11-20T09:27:56;5.80;99.90
29203;DHT22;16245;51.170;4.884;2022-11-20T09:30:22;5.90;99.90
29203;DHT22;16245;51.170;4.884;2022-11-20T09:32:48;6.00;99.90
29203;DHT22;16245;51.170;4.884;2022-11-20T09:35:14;6.10;99.90
29203;DHT22;16245;51.170;4.884;2022-11-20T09:37:39;6.10;99.90
29203;DHT22;16245;51.170;4.884;2022-11-20T09:40:06;6.20;99.90
29203;DHT22;16245;51.170;4.884;2022-11-20T09:56:17;6.40;99.90
29203;DHT22;16245;51.170;4.884;2022-11-20T09:58:52;6.40;99.90
29203;DHT22;16245;51.170;4.884;2022-11-20T10:01:21;6.40;99.90
29203;DHT22;16245;51.170;4.884;2022-11-20T10:04:10;6.40;99.90
29203;DHT22;16245;51.170;4.884;2022-11-20T10:06:58;6.50;99.90
29203;DHT22;16245;51.170;4.884;2022-11-20T10:09:31;6.40;99.90
29203;DHT22;16245;51.170;4.884;2022-11-20T10:12:46;6.50;99.90
29203;DHT22;16245;51.170;4.884;2022-11-20T10:18:21;6.40;99.90
29203;DHT22;16245;51.170;4.884;2022-11-20T10:26:02;6.70;99.90
29203;DHT22;16245;51.170;4.884;2022-11-20T10:31:25;6.90;99.90
29203;DHT22;16245;51.170;4.884;2022-11-20T10:33:52;7.00;99.90
29203;DHT22;16245;51.170;4.884;2022-11-20T10:36:23;7.10;99.90
29203;DHT22;16245;51.170;4.884;2022-11-20T10:39:01;6.80;99.90
29203;DHT22;16245;51.170;4.884;2022-11-20T10:41:33;6.40;99.90
29203;DHT22;16245;51.170;4.884;2022-11-20T10:46:25;6.70;99.90
29203;DHT22;16245;51.170;4.884;2022-11-20T10:48:54;6.60;99.90
29203;DHT22;16245;51.170;4.884;2022-11-20T10:51:37;6.70;99.90
29203;DHT22;16245;51.170;4.884;2022-11-20T10:56:54;7.00;99.90
29203;DHT22;16245;51.170;4.884;2022-11-20T10:59:31;7.00;99.90
29203;DHT22;16245;51.170;4.884;2022-11-20T11:02:00;6.90;99.90
29203;DHT22;16245;51.170;4.884;2022-11-20T11:07:08;7.00;99.90
29203;DHT22;16245;51.170;4.884;2022-11-20T11:09:39;6.90;99.90
29203;DHT22;16245;51.170;4.884;2022-11-20T11:12:10;6.70;99.90
29203;DHT22;16245;51.170;4.884;2022-11-20T11:15:02;6.80;99.90
29203;DHT22;16245;51.170;4.884;2022-11-20T11:17:30;7.00;99.90
29203;DHT22;16245;51.170;4.884;2022-11-20T11:20:00;6.80;99.90
29203;DHT22;16245;51.170;4.884;2022-11-20T11:22:28;6.80;99.90
29203;DHT22;16245;51.170;4.884;2022-11-20T11:24:54;7.10;99.90
29203;DHT22;16245;51.170;4.884;2022-11-20T11:27:20;7.10;99.90
29203;DHT22;16245;51.170;4.884;2022-11-20T11:29:46;7.20;99.90
29203;DHT22;16245;51.170;4.884;2022-11-20T11:32:15;7.20;99.90
29203;DHT22;16245;51.170;4.884;2022-11-20T11:34:43;7.50;99.90
29203;DHT22;16245;51.170;4.884;2022-11-20T11:37:20;7.80;99.90
29203;DHT22;16245;51.170;4.884;2022-11-20T11:39:49;8.00;99.90
29203;DHT22;16245;51.170;4.884;2022-11-20T11:42:17;8.00;99.90
29203;DHT22;16245;51.170;4.884;2022-11-20T11:44:45;8.20;99.90
29203;DHT22;16245;51.170;4.884;2022-11-20T11:53:05;8.10;99.90
29203;DHT22;16245;51.170;4.884;2022-11-20T11:55:38;8.10;99.90
29203;DHT22;16245;51.170;4.884;2022-11-20T12:00:56;8.30;99.90
29203;DHT22;16245;51.170;4.884;2022-11-20T12:03:32;8.40;99.90
29203;DHT22;16245;51.170;4.884;2022-11-20T12:06:15;8.60;99.90
29203;DHT22;16245;51.170;4.884;2022-11-20T12:08:56;8.40;99.90
29203;DHT22;16245;51.170;4.884;2022-11-20T12:11:47;8.00;99.90
29203;DHT22;16245;51.170;4.884;2022-11-20T12:14:17;8.20;99.90
29203;DHT22;16245;51.170;4.884;2022-11-20T12:16:45;8.10;99.90
29203;DHT22;16245;51.170;4.884;2022-11-20T12:19:13;8.30;99.90
29203;DHT22;16245;51.170;4.884;2022-11-20T12:29:48;8.60;99.90
29203;DHT22;16245;51.170;4.884;2022-11-20T12:35:11;9.10;99.90
29203;DHT22;16245;51.170;4.884;2022-11-20T12:40:27;9.20;99.90
29203;DHT22;16245;51.170;4.884;2022-11-20T12:49:08;9.00;99.90
29203;DHT22;16245;51.170;4.884;2022-11-20T13:05:41;9.50;99.90
29203;DHT22;16245;51.170;4.884;2022-11-20T13:08:25;9.40;99.90
29203;DHT22;16245;51.170;4.884;2022-11-20T13:11:11;9.50;99.90
29203;DHT22;16245;51.170;4.884;2022-11-20T13:19:16;9.40;99.90
29203;DHT22;16245;51.170;4.884;2022-11-20T13:21:47;9.50;99.90
29203;DHT22;16245;51.170;4.884;2022-11-20T13:29:34;9.60;99.90
29203;DHT22;16245;51.170;4.884;2022-11-20T13:32:20;9.60;99.90
29203;DHT22;16245;51.170;4.884;2022-11-20T13:34:55;9.50;99.90
29203;DHT22;16245;51.170;4.884;2022-11-20T13:39:52;9.40;99.90
29203;DHT22;16245;51.170;4.884;2022-11-20T13:42:27;9.30;99.90
29203;DHT22;16245;51.170;4.884;2022-11-20T13:44:54;9.40;99.90
29203;DHT22;16245;51.170;4.884;2022-11-20T13:47:25;9.30;99.90
29203;DHT22;16245;51.170;4.884;2022-11-20T13:49:53;9.20;99.90
29203;DHT22;16245;51.170;4.884;2022-11-20T13:52:58;9.20;99.90
29203;DHT22;16245;51.170;4.884;2022-11-20T13:55:53;9.30;99.90
29203;DHT22;16245;51.170;4.884;2022-11-20T14:01:35;9.40;99.90
29203;DHT22;16245;51.170;4.884;2022-11-20T14:04:09;9.20;99.90
29203;DHT22;16245;51.170;4.884;2022-11-20T14:06:45;9.30;99.90
29203;DHT22;16245;51.170;4.884;2022-11-20T14:09:25;9.20;99.90
29203;DHT22;16245;51.170;4.884;2022-11-20T14:11:51;9.20;99.90
29203;DHT22;16245;51.170;4.884;2022-11-20T14:14:19;9.20;99.90
29203;DHT22;16245;51.170;4.884;2022-11-20T14:16:51;9.10;99.90
29203;DHT22;16245;51.170;4.884;2022-11-20T14:21:52;9.00;99.90
29203;DHT22;16245;51.170;4.884;2022-11-20T14:24:21;8.90;99.90
29203;DHT22;16245;51.170;4.884;2022-11-20T14:26:47;9.00;99.90
29203;DHT22;16245;51.170;4.884;2022-11-20T14:29:25;8.90;99.90
29203;DHT22;16245;51.170;4.884;2022-11-20T14:31:54;8.90;99.90
29203;DHT22;16245;51.170;4.884;2022-11-20T14:34:25;8.90;99.90
29203;DHT22;16245;51.170;4.884;2022-11-20T14:36:57;8.90;99.90
29203;DHT22;16245;51.170;4.884;2022-11-20T14:39:36;9.00;99.90
29203;DHT22;16245;51.170;4.884;2022-11-20T14:42:03;8.90;99.90
29203;DHT22;16245;51.170;4.884;2022-11-20T14:44:39;8.90;99.90
29203;DHT22;16245;51.170;4.884;2022-11-20T14:47:06;8.80;99.90
29203;DHT22;16245;51.170;4.884;2022-11-20T14:49:32;8.80;99.90
29203;DHT22;16245;51.170;4.884;2022-11-20T14:52:14;8.90;99.90
29203;DHT22;16245;51.170;4.884;2022-11-20T14:54:48;8.90;99.90
29203;DHT22;16245;51.170;4.884;2022-11-20T14:57:23;8.80;99.90
29203;DHT22;16245;51.170;4.884;2022-11-20T14:59:49;8.80;99.90
29203;DHT22;16245;51.170;4.884;2022-11-20T15:02:15;8.90;99.90
29203;DHT22;16245;51.170;4.884;2022-11-20T15:04:46;8.90;99.90
29203;DHT22;16245;51.170;4.884;2022-11-20T15:07:11;8.80;99.90
29203;DHT22;16245;51.170;4.884;2022-11-20T15:09:37;8.90;99.90
29203;DHT22;16245;51.170;4.884;2022-11-20T15:12:03;8.90;99.90
29203;DHT22;16245;51.170;4.884;2022-11-20T15:14:30;9.00;99.90
29203;DHT22;16245;51.170;4.884;2022-11-20T15:16:59;9.10;99.90
29203;DHT22;16245;51.170;4.884;2022-11-20T15:19:25;9.00;99.90
29203;DHT22;16245;51.170;4.884;2022-11-20T15:21:52;9.00;99.90
29203;DHT22;16245;51.170;4.884;2022-11-20T15:24:18;9.00;99.90
29203;DHT22;16245;51.170;4.884;2022-11-20T15:26:44;9.00;99.90
29203;DHT22;16245;51.170;4.884;2022-11-20T15:29:15;9.00;99.90
29203;DHT22;16245;51.170;4.884;2022-11-20T15:31:44;9.00;99.90
29203;DHT22;16245;51.170;4.884;2022-11-20T15:34:16;9.00;99.90
29203;DHT22;16245;51.170;4.884;2022-11-20T15:36:42;9.00;99.90
29203;DHT22;16245;51.170;4.884;2022-11-20T15:39:09;9.00;99.90
29203;DHT22;16245;51.170;4.884;2022-11-20T15:41:35;9.00;99.90
29203;DHT22;16245;51.170;4.884;2022-11-20T15:44:01;9.00;99.90
29203;DHT22;16245;51.170;4.884;2022-11-20T15:46:29;9.00;99.90
29203;DHT22;16245;51.170;4.884;2022-11-20T15:48:56;9.00;99.90
29203;DHT22;16245;51.170;4.884;2022-11-20T15:51:46;9.00;99.90
29203;DHT22;16245;51.170;4.884;2022-11-20T15:54:21;9.00;99.90
29203;DHT22;16245;51.170;4.884;2022-11-20T15:56:50;9.10;99.90
29203;DHT22;16245;51.170;4.884;2022-11-20T15:59:19;9.00;99.90
29203;DHT22;16245;51.170;4.884;2022-11-20T16:01:45;9.00;99.90
29203;DHT22;16245;51.170;4.884;2022-11-20T16:04:15;9.00;99.90
29203;DHT22;16245;51.170;4.884;2022-11-20T16:06:41;8.90;99.90
29203;DHT22;16245;51.170;4.884;2022-11-20T16:09:07;8.90;99.90
29203;DHT22;16245;51.170;4.884;2022-11-20T16:11:34;8.90;99.90
29203;DHT22;16245;51.170;4.884;2022-11-20T16:14:02;9.00;99.90
29203;DHT22;16245;51.170;4.884;2022-11-20T16:16:46;9.00;99.90
29203;DHT22;16245;51.170;4.884;2022-11-20T16:19:12;9.10;99.90
29203;DHT22;16245;51.170;4.884;2022-11-20T16:21:39;9.10;99.90
29203;DHT22;16245;51.170;4.884;2022-11-20T16:24:08;9.20;99.90
29203;DHT22;16245;51.170;4.884;2022-11-20T16:26:34;9.20;99.90
29203;DHT22;16245;51.170;4.884;2022-11-20T16:29:01;9.20;99.90
29203;DHT22;16245;51.170;4.884;2022-11-20T16:31:28;9.10;99.90
29203;DHT22;16245;51.170;4.884;2022-11-20T16:33:59;9.10;99.90
29203;DHT22;16245;51.170;4.884;2022-11-20T16:36:27;9.10;99.90
29203;DHT22;16245;51.170;4.884;2022-11-20T16:38:58;9.20;99.90
29203;DHT22;16245;51.170;4.884;2022-11-20T16:41:25;9.20;99.90
29203;DHT22;16245;51.170;4.884;2022-11-20T16:43:54;9.10;99.90
29203;DHT22;16245;51.170;4.884;2022-11-20T16:46:21;9.00;99.90
29203;DHT22;16245;51.170;4.884;2022-11-20T16:51:24;9.20;99.90
29203;DHT22;16245;51.170;4.884;2022-11-20T16:53:50;9.10;99.90
29203;DHT22;16245;51.170;4.884;2022-11-20T16:56:18;9.10;99.90
29203;DHT22;16245;51.170;4.884;2022-11-20T16:58:45;9.00;99.90
29203;DHT22;16245;51.170;4.884;2022-11-20T17:01:13;9.00;99.90
29203;DHT22;16245;51.170;4.884;2022-11-20T17:03:40;9.10;99.90
29203;DHT22;16245;51.170;4.884;2022-11-20T17:06:18;9.20;99.90
29203;DHT22;16245;51.170;4.884;2022-11-20T17:08:45;9.20;99.90
29203;DHT22;16245;51.170;4.884;2022-11-20T17:11:14;9.20;99.90
29203;DHT22;16245;51.170;4.884;2022-11-20T17:13:40;9.20;99.90
29203;DHT22;16245;51.170;4.884;2022-11-20T17:16:13;9.20;99.90
29203;DHT22;16245;51.170;4.884;2022-11-20T17:18:39;9.30;99.90
29203;DHT22;16245;51.170;4.884;2022-11-20T17:21:06;9.30;99.90
29203;DHT22;16245;51.170;4.884;2022-11-20T17:23:36;9.20;99.90
29203;DHT22;16245;51.170;4.884;2022-11-20T17:26:03;9.20;99.90
29203;DHT22;16245;51.170;4.884;2022-11-20T17:28:29;9.20;99.90
29203;DHT22;16245;51.170;4.884;2022-11-20T17:31:04;9.20;99.90
29203;DHT22;16245;51.170;4.884;2022-11-20T17:33:30;9.20;99.90